sensor_id;sensor_type;location;lat;lon;timestamp;pressure;altitude;pressure_sealevel;temperature;humidity
12868;BME280;33517;49.866;8.320;2023-03-03T00:02:09;100868.41;;;2.34;53.46
12868;BME280;33517;49.866;8.320;2023-03-03T00:05:01;100857.38;;;2.31;53.56
12868;BME280;33517;49.866;8.320;2023-03-03T00:07:54;100864.44;;;2.29;53.86
12868;BME280;33517;49.866;8.320;2023-03-03T00:10:46;100862.97;;;2.25;53.92
12868;BME280;33517;49.866;8.320;2023-03-03T00:13:44;100864.22;;;2.19;53.91
12868;BME280;33517;49.866;8.320;2023-03-03T00:16:37;100857.84;;;2.11;54.08
12868;BME280;33517;49.866;8.320;2023-03-03T00:19:36;100859.09;;;2.05;53.96
12868;BME280;33517;49.866;8.320;2023-03-03T00:22:30;100865.41;;;2.01;54.46
12868;BME280;33517;49.866;8.320;2023-03-03T00:25:29;100867.47;;;1.96;54.37
12868;BME280;33517;49.866;8.320;2023-03-03T00:28:25;100864.16;;;1.94;54.81
12868;BME280;33517;49.866;8.320;2023-03-03T00:31:19;100860.94;;;1.91;54.84
12868;BME280;33517;49.866;8.320;2023-03-03T00:34:21;100865.50;;;1.87;54.80
12868;BME280;33517;49.866;8.320;2023-03-03T00:37:31;100881.44;;;1.81;54.99
12868;BME280;33517;49.866;8.320;2023-03-03T00:40:25;100878.41;;;1.74;54.96
12868;BME280;33517;49.866;8.320;2023-03-03T00:43:21;100886.50;;;1.70;55.00
12868;BME280;33517;49.866;8.320;2023-03-03T00:46:16;100891.75;;;1.68;55.69
12868;BME280;33517;49.866;8.320;2023-03-03T00:49:20;100893.81;;;1.63;57.22
12868;BME280;33517;49.866;8.320;2023-03-03T00:52:16;100897.41;;;1.61;56.49
12868;BME280;33517;49.866;8.320;2023-03-03T00:55:09;100889.00;;;1.57;56.47
12868;BME280;33517;49.866;8.320;2023-03-03T00:58:02;100897.00;;;1.54;57.05
12868;BME280;33517;49.866;8.320;2023-03-03T01:00:55;100894.56;;;1.51;56.95
12868;BME280;33517;49.866;8.320;2023-03-03T01:03:48;100903.50;;;1.47;56.87
12868;BME280;33517;49.866;8.320;2023-03-03T01:06:40;100905.53;;;1.42;56.85
12868;BME280;33517;49.866;8.320;2023-03-03T01:09:31;100901.44;;;1.38;57.60
12868;BME280;33517;49.866;8.320;2023-03-03T01:12:23;100899.16;;;1.34;57.28
12868;BME280;33517;49.866;8.320;2023-03-03T01:15:15;100901.94;;;1.31;57.84
12868;BME280;33517;49.866;8.320;2023-03-03T01:18:13;100890.91;;;1.27;57.25
12868;BME280;33517;49.866;8.320;2023-03-03T01:24:28;100890.44;;;1.21;57.83
12868;BME280;33517;49.866;8.320;2023-03-03T01:27:30;100889.75;;;1.19;58.07
12868;BME280;33517;49.866;8.320;2023-03-03T01:30:27;100882.03;;;1.17;58.04
12868;BME280;33517;49.866;8.320;2023-03-03T01:33:22;100879.66;;;1.14;58.72
12868;BME280;33517;49.866;8.320;2023-03-03T01:36:23;100880.75;;;1.10;58.97
12868;BME280;33517;49.866;8.320;2023-03-03T01:39:19;100882.59;;;1.08;58.48
12868;BME280;33517;49.866;8.320;2023-03-03T01:42:14;100886.31;;;1.04;59.23
12868;BME280;33517;49.866;8.320;2023-03-03T01:45:22;100891.50;;;1.04;58.69
12868;BME280;33517;49.866;8.320;2023-03-03T01:48:23;100888.91;;;1.04;58.71
12868;BME280;33517;49.866;8.320;2023-03-03T01:51:31;100891.50;;;1.04;59.19
12868;BME280;33517;49.866;8.320;2023-03-03T01:54:28;100888.06;;;1.04;59.64
12868;BME280;33517;49.866;8.320;2023-03-03T01:57:31;100889.16;;;1.00;59.66
12868;BME280;33517;49.866;8.320;2023-03-03T02:00:28;100882.53;;;0.96;59.66
12868;BME280;33517;49.866;8.320;2023-03-03T02:03:24;100883.72;;;0.90;59.59
12868;BME280;33517;49.866;8.320;2023-03-03T02:06:24;100877.88;;;0.86;59.74
12868;BME280;33517;49.866;8.320;2023-03-03T02:09:28;100874.66;;;0.83;60.04
12868;BME280;33517;49.866;8.320;2023-03-03T02:12:29;100873.91;;;0.81;60.04
12868;BME280;33517;49.866;8.320;2023-03-03T02:15:27;100868.81;;;0.79;60.13
12868;BME280;33517;49.866;8.320;2023-03-03T02:18:22;100874.94;;;0.78;60.86
12868;BME280;33517;49.866;8.320;2023-03-03T02:21:20;100873.25;;;0.77;61.47
12868;BME280;33517;49.866;8.320;2023-03-03T02:24:19;100874.28;;;0.75;61.56
12868;BME280;33517;49.866;8.320;2023-03-03T02:27:17;100865.22;;;0.68;61.74
12868;BME280;33517;49.866;8.320;2023-03-03T02:30:17;100869.75;;;0.64;61.69
12868;BME280;33517;49.866;8.320;2023-03-03T02:33:11;100874.28;;;0.61;61.22
12868;BME280;33517;49.866;8.320;2023-03-03T02:36:09;100870.19;;;0.57;61.46
12868;BME280;33517;49.866;8.320;2023-03-03T02:39:07;100881.56;;;0.54;62.21
12868;BME280;33517;49.866;8.320;2023-03-03T02:42:08;100879.06;;;0.53;62.43
12868;BME280;33517;49.866;8.320;2023-03-03T02:45:07;100869.56;;;0.53;63.06
12868;BME280;33517;49.866;8.320;2023-03-03T02:48:03;100873.16;;;0.51;62.62
12868;BME280;33517;49.866;8.320;2023-03-03T02:50:57;100874.06;;;0.50;62.84
12868;BME280;33517;49.866;8.320;2023-03-03T02:53:50;100873.34;;;0.48;62.84
12868;BME280;33517;49.866;8.320;2023-03-03T02:56:44;100876.94;;;0.45;62.75
12868;BME280;33517;49.866;8.320;2023-03-03T02:59:39;100874.50;;;0.42;63.08
12868;BME280;33517;49.866;8.320;2023-03-03T03:02:37;100875.78;;;0.35;63.66
12868;BME280;33517;49.866;8.320;2023-03-03T03:05:33;100875.97;;;0.32;63.56
12868;BME280;33517;49.866;8.320;2023-03-03T03:08:26;100878.63;;;0.31;64.02
12868;BME280;33517;49.866;8.320;2023-03-03T03:11:20;100877.19;;;0.27;63.09
12868;BME280;33517;49.866;8.320;2023-03-03T03:14:14;100885.19;;;0.22;63.69
12868;BME280;33517;49.866;8.320;2023-03-03T03:17:10;100885.44;;;0.18;63.72
12868;BME280;33517;49.866;8.320;2023-03-03T03:20:08;100882.19;;;0.14;64.26
12868;BME280;33517;49.866;8.320;2023-03-03T03:23:05;100888.38;;;0.12;64.20
12868;BME280;33517;49.866;8.320;2023-03-03T03:26:05;100891.81;;;0.12;64.39
12868;BME280;33517;49.866;8.320;2023-03-03T03:28:59;100884.97;;;0.11;64.92
12868;BME280;33517;49.866;8.320;2023-03-03T03:31:52;100890.25;;;0.10;64.82
12868;BME280;33517;49.866;8.320;2023-03-03T03:34:45;100881.75;;;0.08;64.96
12868;BME280;33517;49.866;8.320;2023-03-03T03:37:43;100884.31;;;0.08;64.86
12868;BME280;33517;49.866;8.320;2023-03-03T03:40:36;100880.91;;;0.07;64.45
12868;BME280;33517;49.866;8.320;2023-03-03T03:43:30;100887.91;;;0.05;65.00
12868;BME280;33517;49.866;8.320;2023-03-03T03:46:39;100889.84;;;0.02;65.19
12868;BME280;33517;49.866;8.320;2023-03-03T03:49:42;100896.94;;;-0.02;65.41
12868;BME280;33517;49.866;8.320;2023-03-03T03:52:42;100892.13;;;-0.08;65.51
12868;BME280;33517;49.866;8.320;2023-03-03T03:55:38;100893.09;;;-0.11;65.51
12868;BME280;33517;49.866;8.320;2023-03-03T03:58:39;100892.34;;;-0.13;65.32
12868;BME280;33517;49.866;8.320;2023-03-03T04:01:33;100894.94;;;-0.13;65.77
12868;BME280;33517;49.866;8.320;2023-03-03T04:04:32;100899.38;;;-0.15;65.72
12868;BME280;33517;49.866;8.320;2023-03-03T04:07:28;100891.78;;;-0.18;65.71
12868;BME280;33517;49.866;8.320;2023-03-03T04:10:25;100891.94;;;-0.21;65.92
12868;BME280;33517;49.866;8.320;2023-03-03T04:13:18;100897.38;;;-0.25;65.94
12868;BME280;33517;49.866;8.320;2023-03-03T04:16:20;100905.91;;;-0.23;66.09
12868;BME280;33517;49.866;8.320;2023-03-03T04:19:14;100904.13;;;-0.23;66.36
12868;BME280;33517;49.866;8.320;2023-03-03T04:22:09;100908.63;;;-0.26;66.10
12868;BME280;33517;49.866;8.320;2023-03-03T04:25:05;100915.50;;;-0.25;66.47
12868;BME280;33517;49.866;8.320;2023-03-03T04:28:07;100918.13;;;-0.27;66.42
12868;BME280;33517;49.866;8.320;2023-03-03T04:31:05;100914.00;;;-0.29;67.06
12868;BME280;33517;49.866;8.320;2023-03-03T04:33:58;100917.47;;;-0.30;66.78
12868;BME280;33517;49.866;8.320;2023-03-03T04:36:51;100910.00;;;-0.35;67.24
12868;BME280;33517;49.866;8.320;2023-03-03T04:39:44;100922.16;;;-0.37;66.96
12868;BME280;33517;49.866;8.320;2023-03-03T04:42:43;100919.63;;;-0.38;67.43
12868;BME280;33517;49.866;8.320;2023-03-03T04:45:38;100923.34;;;-0.42;67.09
12868;BME280;33517;49.866;8.320;2023-03-03T04:48:34;100925.22;;;-0.46;67.47
12868;BME280;33517;49.866;8.320;2023-03-03T04:51:34;100923.75;;;-0.50;67.00
12868;BME280;33517;49.866;8.320;2023-03-03T04:54:28;100921.16;;;-0.50;67.36
12868;BME280;33517;49.866;8.320;2023-03-03T04:57:24;100930.00;;;-0.54;67.14
12868;BME280;33517;49.866;8.320;2023-03-03T05:00:20;100945.56;;;-0.55;67.17
12868;BME280;33517;49.866;8.320;2023-03-03T05:03:20;100941.31;;;-0.56;67.26
12868;BME280;33517;49.866;8.320;2023-03-03T05:06:19;100950.81;;;-0.57;67.56
12868;BME280;33517;49.866;8.320;2023-03-03T05:09:13;100940.66;;;-0.60;67.14
12868;BME280;33517;49.866;8.320;2023-03-03T05:12:06;100940.66;;;-0.60;67.94
12868;BME280;33517;49.866;8.320;2023-03-03T05:15:01;100938.97;;;-0.61;68.02
12868;BME280;33517;49.866;8.320;2023-03-03T05:17:57;100945.97;;;-0.63;67.90
12868;BME280;33517;49.866;8.320;2023-03-03T05:20:56;100937.47;;;-0.65;67.64
12868;BME280;33517;49.866;8.320;2023-03-03T05:23:51;100937.63;;;-0.68;67.56
12868;BME280;33517;49.866;8.320;2023-03-03T05:26:53;100935.06;;;-0.68;67.64
12868;BME280;33517;49.866;8.320;2023-03-03T05:29:50;100935.16;;;-0.69;68.18
12868;BME280;33517;49.866;8.320;2023-03-03T05:32:48;100940.41;;;-0.71;67.71
12868;BME280;33517;49.866;8.320;2023-03-03T05:35:41;100928.28;;;-0.70;67.84
12868;BME280;33517;49.866;8.320;2023-03-03T05:38:39;100932.66;;;-0.71;68.44
12868;BME280;33517;49.866;8.320;2023-03-03T05:41:33;100933.53;;;-0.72;67.88
12868;BME280;33517;49.866;8.320;2023-03-03T05:44:27;100937.97;;;-0.74;68.12
12868;BME280;33517;49.866;8.320;2023-03-03T05:47:20;100938.13;;;-0.77;68.24
12868;BME280;33517;49.866;8.320;2023-03-03T05:50:17;100946.78;;;-0.78;68.39
12868;BME280;33517;49.866;8.320;2023-03-03T05:53:11;100946.97;;;-0.81;68.48
12868;BME280;33517;49.866;8.320;2023-03-03T05:56:09;100954.72;;;-0.81;68.67
12868;BME280;33517;49.866;8.320;2023-03-03T05:59:07;100952.22;;;-0.82;68.56
12868;BME280;33517;49.866;8.320;2023-03-03T06:02:04;100960.00;;;-0.84;68.79
12868;BME280;33517;49.866;8.320;2023-03-03T06:04:58;100960.84;;;-0.83;68.84
12868;BME280;33517;49.866;8.320;2023-03-03T06:07:55;100971.19;;;-0.83;68.81
12868;BME280;33517;49.866;8.320;2023-03-03T06:10:51;100980.69;;;-0.84;68.57
12868;BME280;33517;49.866;8.320;2023-03-03T06:13:48;100972.94;;;-0.84;68.68
12868;BME280;33517;49.866;8.320;2023-03-03T06:16:47;100970.22;;;-0.81;68.84
12868;BME280;33517;49.866;8.320;2023-03-03T06:19:41;100976.13;;;-0.79;68.84
12868;BME280;33517;49.866;8.320;2023-03-03T06:22:39;100984.56;;;-0.75;68.34
12868;BME280;33517;49.866;8.320;2023-03-03T06:25:35;100991.91;;;-0.68;68.75
12868;BME280;33517;49.866;8.320;2023-03-03T06:28:28;100986.50;;;-0.63;68.29
12868;BME280;33517;49.866;8.320;2023-03-03T06:31:26;100990.34;;;-0.55;68.25
12868;BME280;33517;49.866;8.320;2023-03-03T06:34:22;100993.19;;;-0.44;68.56
12868;BME280;33517;49.866;8.320;2023-03-03T06:37:22;100994.38;;;-0.34;67.75
12868;BME280;33517;49.866;8.320;2023-03-03T06:40:19;100997.22;;;-0.23;67.71
12868;BME280;33517;49.866;8.320;2023-03-03T06:43:17;101002.31;;;-0.06;67.62
12868;BME280;33517;49.866;8.320;2023-03-03T06:46:11;100998.72;;;0.13;68.15
12868;BME280;33517;49.866;8.320;2023-03-03T06:49:06;101011.47;;;0.31;67.27
12868;BME280;33517;49.866;8.320;2023-03-03T06:52:10;101003.75;;;0.75;67.00
12868;BME280;33517;49.866;8.320;2023-03-03T06:55:12;101012.09;;;1.66;65.50
12868;BME280;33517;49.866;8.320;2023-03-03T06:58:14;101007.47;;;2.65;64.00
12868;BME280;33517;49.866;8.320;2023-03-03T07:01:14;101014.75;;;3.86;61.70
12868;BME280;33517;49.866;8.320;2023-03-03T07:04:22;101009.34;;;4.83;59.65
12868;BME280;33517;49.866;8.320;2023-03-03T07:07:23;101007.56;;;5.74;58.34
12868;BME280;33517;49.866;8.320;2023-03-03T07:10:26;101011.94;;;6.49;56.43
12868;BME280;33517;49.866;8.320;2023-03-03T07:13:27;101021.84;;;7.18;54.98
12868;BME280;33517;49.866;8.320;2023-03-03T07:16:25;101028.50;;;7.83;54.45
12868;BME280;33517;49.866;8.320;2023-03-03T07:19:31;101019.69;;;8.33;52.96
12868;BME280;33517;49.866;8.320;2023-03-03T07:22:38;101029.41;;;8.80;53.23
12868;BME280;33517;49.866;8.320;2023-03-03T07:25:33;101037.09;;;9.29;52.22
12868;BME280;33517;49.866;8.320;2023-03-03T07:28:32;101032.84;;;9.56;52.30
12868;BME280;33517;49.866;8.320;2023-03-03T07:31:30;101042.75;;;10.08;51.61
12868;BME280;33517;49.866;8.320;2023-03-03T07:34:36;101055.72;;;10.46;50.47
12868;BME280;33517;49.866;8.320;2023-03-03T07:37:36;101054.81;;;10.73;49.65
12868;BME280;33517;49.866;8.320;2023-03-03T07:40:36;101062.16;;;11.04;49.38
12868;BME280;33517;49.866;8.320;2023-03-03T07:43:38;101057.81;;;11.39;48.62
12868;BME280;33517;49.866;8.320;2023-03-03T07:46:40;101065.81;;;11.72;48.94
12868;BME280;33517;49.866;8.320;2023-03-03T07:49:40;101081.50;;;11.56;47.68
12868;BME280;33517;49.866;8.320;2023-03-03T07:52:43;101087.88;;;11.97;47.24
12868;BME280;33517;49.866;8.320;2023-03-03T07:55:41;101093.81;;;11.99;46.40
12868;BME280;33517;49.866;8.320;2023-03-03T07:58:40;101088.41;;;12.50;45.12
12868;BME280;33517;49.866;8.320;2023-03-03T08:01:38;101084.38;;;13.36;45.32
12868;BME280;33517;49.866;8.320;2023-03-03T08:04:37;101094.00;;;13.45;44.20
12868;BME280;33517;49.866;8.320;2023-03-03T08:07:34;101097.34;;;14.02;43.43
12868;BME280;33517;49.866;8.320;2023-03-03T08:10:34;101091.44;;;14.69;42.27
12868;BME280;33517;49.866;8.320;2023-03-03T08:13:37;101095.63;;;15.09;41.77
12868;BME280;33517;49.866;8.320;2023-03-03T08:16:37;101099.88;;;15.55;41.09
12868;BME280;33517;49.866;8.320;2023-03-03T08:19:35;101099.28;;;16.12;39.90
12868;BME280;33517;49.866;8.320;2023-03-03T08:22:48;101099.72;;;16.59;38.81
12868;BME280;33517;49.866;8.320;2023-03-03T08:25:44;101103.06;;;16.68;38.03
12868;BME280;33517;49.866;8.320;2023-03-03T08:28:47;101109.88;;;16.91;38.31
12868;BME280;33517;49.866;8.320;2023-03-03T08:31:46;101104.75;;;17.32;37.52
12868;BME280;33517;49.866;8.320;2023-03-03T08:34:53;101117.81;;;17.76;36.92
12868;BME280;33517;49.866;8.320;2023-03-03T08:37:47;101107.59;;;17.86;36.13
12868;BME280;33517;49.866;8.320;2023-03-03T08:40:43;101110.03;;;18.08;36.18
12868;BME280;33517;49.866;8.320;2023-03-03T08:43:39;101111.06;;;17.10;36.36
12868;BME280;33517;49.866;8.320;2023-03-03T08:46:35;101111.97;;;17.93;35.98
12868;BME280;33517;49.866;8.320;2023-03-03T08:49:28;101111.25;;;18.12;34.86
12868;BME280;33517;49.866;8.320;2023-03-03T08:52:20;101116.31;;;18.89;34.35
12868;BME280;33517;49.866;8.320;2023-03-03T08:55:16;101110.44;;;19.65;33.21
12868;BME280;33517;49.866;8.320;2023-03-03T09:01:17;101123.97;;;21.78;30.79
12868;BME280;33517;49.866;8.320;2023-03-03T09:04:18;101116.97;;;22.20;29.88
12868;BME280;33517;49.866;8.320;2023-03-03T09:07:12;101118.53;;;22.46;29.60
12868;BME280;33517;49.866;8.320;2023-03-03T09:10:05;101120.97;;;22.95;29.08
12868;BME280;33517;49.866;8.320;2023-03-03T09:13:07;101116.84;;;23.52;28.77
12868;BME280;33517;49.866;8.320;2023-03-03T09:16:09;101126.50;;;24.34;27.80
12868;BME280;33517;49.866;8.320;2023-03-03T09:19:15;101130.97;;;23.94;27.72
12868;BME280;33517;49.866;8.320;2023-03-03T09:22:25;101127.09;;;23.55;28.08
12868;BME280;33517;49.866;8.320;2023-03-03T09:25:32;101128.50;;;22.75;27.98
12868;BME280;33517;49.866;8.320;2023-03-03T09:28:29;101122.94;;;22.22;28.24
12868;BME280;33517;49.866;8.320;2023-03-03T09:31:25;101132.31;;;22.67;28.68
12868;BME280;33517;49.866;8.320;2023-03-03T09:34:23;101126.78;;;23.22;27.52
12868;BME280;33517;49.866;8.320;2023-03-03T09:37:20;101130.72;;;22.78;28.44
12868;BME280;33517;49.866;8.320;2023-03-03T09:40:43;101131.38;;;22.62;28.62
12868;BME280;33517;49.866;8.320;2023-03-03T09:43:51;101125.34;;;22.78;28.16
12868;BME280;33517;49.866;8.320;2023-03-03T09:47:04;101129.75;;;22.91;27.97
12868;BME280;33517;49.866;8.320;2023-03-03T09:50:14;101135.50;;;22.76;28.27
12868;BME280;33517;49.866;8.320;2023-03-03T09:53:23;101137.16;;;22.59;27.98
12868;BME280;33517;49.866;8.320;2023-03-03T09:56:24;101133.09;;;22.86;28.02
12868;BME280;33517;49.866;8.320;2023-03-03T09:59:34;101144.75;;;22.80;28.34
12868;BME280;33517;49.866;8.320;2023-03-03T10:02:39;101132.00;;;22.39;28.45
12868;BME280;33517;49.866;8.320;2023-03-03T10:05:41;101137.28;;;22.82;27.89
12868;BME280;33517;49.866;8.320;2023-03-03T10:08:47;101136.13;;;22.60;28.44
12868;BME280;33517;49.866;8.320;2023-03-03T10:11:55;101144.13;;;22.78;28.06
12868;BME280;33517;49.866;8.320;2023-03-03T10:15:14;101148.66;;;22.66;28.58
12868;BME280;33517;49.866;8.320;2023-03-03T10:18:21;101148.47;;;23.09;28.03
12868;BME280;33517;49.866;8.320;2023-03-03T10:21:22;101136.19;;;23.31;27.80
12868;BME280;33517;49.866;8.320;2023-03-03T10:24:26;101145.25;;;23.71;27.30
12868;BME280;33517;49.866;8.320;2023-03-03T10:27:36;101150.09;;;23.39;27.25
12868;BME280;33517;49.866;8.320;2023-03-03T10:30:50;101140.88;;;23.58;27.15
12868;BME280;33517;49.866;8.320;2023-03-03T10:33:52;101149.88;;;23.11;27.11
12868;BME280;33517;49.866;8.320;2023-03-03T10:36:54;101148.97;;;23.17;27.39
12868;BME280;33517;49.866;8.320;2023-03-03T10:40:00;101144.97;;;23.38;27.28
12868;BME280;33517;49.866;8.320;2023-03-03T10:46:41;101148.03;;;24.34;26.50
12868;BME280;33517;49.866;8.320;2023-03-03T10:49:54;101147.94;;;24.68;26.14
12868;BME280;33517;49.866;8.320;2023-03-03T10:53:01;101138.81;;;24.07;26.08
12868;BME280;33517;49.866;8.320;2023-03-03T10:56:16;101148.84;;;23.53;26.54
12868;BME280;33517;49.866;8.320;2023-03-03T10:59:33;101142.22;;;23.26;27.30
12868;BME280;33517;49.866;8.320;2023-03-03T11:02:46;101147.00;;;24.12;26.65
12868;BME280;33517;49.866;8.320;2023-03-03T11:05:54;101149.06;;;23.98;26.75
12868;BME280;33517;49.866;8.320;2023-03-03T11:08:58;101150.03;;;23.69;26.66
12868;BME280;33517;49.866;8.320;2023-03-03T11:12:02;101147.19;;;23.64;26.55
12868;BME280;33517;49.866;8.320;2023-03-03T11:15:24;101155.09;;;23.36;27.26
12868;BME280;33517;49.866;8.320;2023-03-03T11:18:40;101155.19;;;24.05;26.49
12868;BME280;33517;49.866;8.320;2023-03-03T11:21:44;101149.47;;;24.02;26.46
12868;BME280;33517;49.866;8.320;2023-03-03T11:24:56;101152.00;;;23.73;26.82
12868;BME280;33517;49.866;8.320;2023-03-03T11:28:11;101148.88;;;23.76;26.75
12868;BME280;33517;49.866;8.320;2023-03-03T11:31:15;101143.97;;;24.08;26.48
12868;BME280;33517;49.866;8.320;2023-03-03T11:34:33;101135.88;;;24.20;26.65
12868;BME280;33517;49.866;8.320;2023-03-03T11:37:37;101140.41;;;24.31;26.01
12868;BME280;33517;49.866;8.320;2023-03-03T11:40:44;101130.72;;;24.18;26.00
12868;BME280;33517;49.866;8.320;2023-03-03T11:43:48;101134.94;;;24.14;26.15
12868;BME280;33517;49.866;8.320;2023-03-03T11:46:48;101130.03;;;24.23;26.12
12868;BME280;33517;49.866;8.320;2023-03-03T11:49:55;101120.63;;;24.37;25.92
12868;BME280;33517;49.866;8.320;2023-03-03T11:53:02;101116.47;;;23.60;25.57
12868;BME280;33517;49.866;8.320;2023-03-03T11:56:01;101123.50;;;23.72;26.36
12868;BME280;33517;49.866;8.320;2023-03-03T11:59:16;101115.91;;;24.04;26.00
12868;BME280;33517;49.866;8.320;2023-03-03T12:05:53;101106.00;;;24.33;25.91
12868;BME280;33517;49.866;8.320;2023-03-03T12:09:14;101096.97;;;23.76;26.02
12868;BME280;33517;49.866;8.320;2023-03-03T12:12:23;101087.72;;;23.84;25.82
12868;BME280;33517;49.866;8.320;2023-03-03T12:15:25;101084.78;;;23.85;25.88
12868;BME280;33517;49.866;8.320;2023-03-03T12:18:34;101086.72;;;24.36;25.55
12868;BME280;33517;49.866;8.320;2023-03-03T12:21:53;101090.97;;;24.20;25.38
12868;BME280;33517;49.866;8.320;2023-03-03T12:25:25;101081.72;;;24.28;25.32
12868;BME280;33517;49.866;8.320;2023-03-03T12:28:26;101077.72;;;24.30;24.75
12868;BME280;33517;49.866;8.320;2023-03-03T12:31:34;101073.03;;;24.37;25.36
12868;BME280;33517;49.866;8.320;2023-03-03T12:34:44;101071.09;;;24.10;25.40
12868;BME280;33517;49.866;8.320;2023-03-03T12:37:53;101071.16;;;24.66;25.17
12868;BME280;33517;49.866;8.320;2023-03-03T12:40:59;101059.72;;;24.59;24.71
12868;BME280;33517;49.866;8.320;2023-03-03T12:44:03;101065.78;;;24.38;25.31
12868;BME280;33517;49.866;8.320;2023-03-03T12:47:04;101058.72;;;24.77;25.15
12868;BME280;33517;49.866;8.320;2023-03-03T12:50:17;101058.78;;;24.25;25.11
12868;BME280;33517;49.866;8.320;2023-03-03T12:53:42;101041.03;;;24.52;25.38
12868;BME280;33517;49.866;8.320;2023-03-03T12:56:44;101045.03;;;24.10;25.74
12868;BME280;33517;49.866;8.320;2023-03-03T13:00:00;101036.53;;;24.58;25.29
12868;BME280;33517;49.866;8.320;2023-03-03T13:03:06;101031.78;;;24.77;24.67
12868;BME280;33517;49.866;8.320;2023-03-03T13:06:11;101029.69;;;24.67;24.80
12868;BME280;33517;49.866;8.320;2023-03-03T13:09:21;101028.09;;;24.66;24.83
12868;BME280;33517;49.866;8.320;2023-03-03T13:12:29;101032.16;;;24.40;25.03
12868;BME280;33517;49.866;8.320;2023-03-03T13:15:30;101028.66;;;24.68;25.13
12868;BME280;33517;49.866;8.320;2023-03-03T13:18:59;101031.22;;;24.46;24.80
12868;BME280;33517;49.866;8.320;2023-03-03T13:22:16;101030.88;;;24.43;24.82
12868;BME280;33517;49.866;8.320;2023-03-03T13:25:34;101021.03;;;24.20;24.67
12868;BME280;33517;49.866;8.320;2023-03-03T13:28:37;101027.59;;;24.13;24.76
12868;BME280;33517;49.866;8.320;2023-03-03T13:31:39;101025.88;;;23.84;24.92
12868;BME280;33517;49.866;8.320;2023-03-03T13:34:41;101021.47;;;23.66;25.45
12868;BME280;33517;49.866;8.320;2023-03-03T13:37:45;101024.50;;;23.69;24.69
12868;BME280;33517;49.866;8.320;2023-03-03T13:40:50;101017.25;;;23.24;25.11
12868;BME280;33517;49.866;8.320;2023-03-03T13:43:52;101001.59;;;23.09;25.28
12868;BME280;33517;49.866;8.320;2023-03-03T13:46:59;100997.91;;;23.33;25.03
12868;BME280;33517;49.866;8.320;2023-03-03T13:50:03;101003.50;;;23.55;24.88
12868;BME280;33517;49.866;8.320;2023-03-03T13:53:16;101004.16;;;23.27;25.00
12868;BME280;33517;49.866;8.320;2023-03-03T13:56:34;101003.97;;;23.52;24.96
12868;BME280;33517;49.866;8.320;2023-03-03T13:59:37;100991.22;;;23.70;24.75
12868;BME280;33517;49.866;8.320;2023-03-03T14:02:58;101000.44;;;23.05;24.59
12868;BME280;33517;49.866;8.320;2023-03-03T14:06:03;100994.16;;;22.58;25.30
12868;BME280;33517;49.866;8.320;2023-03-03T14:09:29;100989.88;;;22.10;25.63
12868;BME280;33517;49.866;8.320;2023-03-03T14:12:50;100984.25;;;22.29;25.89
12868;BME280;33517;49.866;8.320;2023-03-03T14:16:00;100990.28;;;22.25;26.20
12868;BME280;33517;49.866;8.320;2023-03-03T14:19:02;100978.84;;;21.99;25.97
12868;BME280;33517;49.866;8.320;2023-03-03T14:22:05;100975.25;;;21.51;26.53
12868;BME280;33517;49.866;8.320;2023-03-03T14:25:11;100977.25;;;21.20;26.13
12868;BME280;33517;49.866;8.320;2023-03-03T14:28:12;100977.03;;;21.21;26.87
12868;BME280;33517;49.866;8.320;2023-03-03T14:31:24;100969.69;;;20.85;26.79
12868;BME280;33517;49.866;8.320;2023-03-03T14:34:35;100981.59;;;20.34;27.47
12868;BME280;33517;49.866;8.320;2023-03-03T14:37:42;100975.75;;;19.99;27.43
12868;BME280;33517;49.866;8.320;2023-03-03T14:40:39;100975.50;;;18.45;28.33
12868;BME280;33517;49.866;8.320;2023-03-03T14:43:39;100974.19;;;16.78;30.39
12868;BME280;33517;49.866;8.320;2023-03-03T14:46:36;100982.72;;;15.52;31.69
12868;BME280;33517;49.866;8.320;2023-03-03T14:49:34;100978.31;;;14.47;33.59
12868;BME280;33517;49.866;8.320;2023-03-03T14:52:29;100974.97;;;13.92;34.74
12868;BME280;33517;49.866;8.320;2023-03-03T14:55:34;100971.53;;;13.45;35.47
12868;BME280;33517;49.866;8.320;2023-03-03T14:58:35;100976.38;;;13.01;36.80
12868;BME280;33517;49.866;8.320;2023-03-03T15:01:37;100974.75;;;12.68;37.54
12868;BME280;33517;49.866;8.320;2023-03-03T15:04:39;100972.06;;;12.36;38.04
12868;BME280;33517;49.866;8.320;2023-03-03T15:07:34;100974.81;;;12.10;37.98
12868;BME280;33517;49.866;8.320;2023-03-03T15:10:39;100974.25;;;11.90;38.93
12868;BME280;33517;49.866;8.320;2023-03-03T15:13:34;100975.84;;;11.75;40.03
12868;BME280;33517;49.866;8.320;2023-03-03T15:16:35;100978.91;;;11.63;40.05
12868;BME280;33517;49.866;8.320;2023-03-03T15:19:44;100981.78;;;11.44;40.60
12868;BME280;33517;49.866;8.320;2023-03-03T15:22:50;100981.47;;;11.21;42.38
12868;BME280;33517;49.866;8.320;2023-03-03T15:25:51;100982.88;;;11.07;42.54
12868;BME280;33517;49.866;8.320;2023-03-03T15:28:58;100976.88;;;10.97;42.60
12868;BME280;33517;49.866;8.320;2023-03-03T15:31:59;100974.47;;;10.86;42.64
12868;BME280;33517;49.866;8.320;2023-03-03T15:35:06;100980.00;;;10.75;43.23
12868;BME280;33517;49.866;8.320;2023-03-03T15:38:09;100970.34;;;10.66;43.13
12868;BME280;33517;49.866;8.320;2023-03-03T15:41:25;100964.88;;;10.60;43.24
12868;BME280;33517;49.866;8.320;2023-03-03T15:44:32;100968.28;;;10.52;43.73
12868;BME280;33517;49.866;8.320;2023-03-03T15:51:07;100968.28;;;10.35;44.57
12868;BME280;33517;49.866;8.320;2023-03-03T15:54:17;100970.28;;;10.23;44.21
12868;BME280;33517;49.866;8.320;2023-03-03T15:57:18;100970.22;;;10.15;43.76
12868;BME280;33517;49.866;8.320;2023-03-03T16:00:46;100966.41;;;10.00;44.09
12868;BME280;33517;49.866;8.320;2023-03-03T16:03:53;100976.81;;;9.92;44.57
12868;BME280;33517;49.866;8.320;2023-03-03T16:06:52;100982.13;;;9.82;44.58
12868;BME280;33517;49.866;8.320;2023-03-03T16:09:56;100982.31;;;9.71;44.67